sensor_id;sensor_type;location;lat;lon;timestamp;pressure;altitude;pressure_sealevel;temperature;humidity
51530;BME280;37613;51.788;21.582;2022-08-24T00:18:07;100166.21;;;20.32;82.12
51530;BME280;37613;51.788;21.582;2022-08-24T00:22:09;100172.00;;;20.28;82.27
51530;BME280;37613;51.788;21.582;2022-08-24T00:26:11;100175.98;;;20.17;84.00
51530;BME280;37613;51.788;21.582;2022-08-24T00:30:16;100181.09;;;19.99;83.72
51530;BME280;37613;51.788;21.582;2022-08-24T00:34:19;100186.17;;;19.86;83.55
51530;BME280;37613;51.788;21.582;2022-08-24T00:38:21;100187.98;;;19.76;83.86
51530;BME280;37613;51.788;21.582;2022-08-24T00:42:24;100185.52;;;19.67;84.30
51530;BME280;37613;51.788;21.582;2022-08-24T00:46:47;100189.61;;;19.61;83.93
51530;BME280;37613;51.788;21.582;2022-08-24T00:51:03;100191.77;;;19.56;83.86
51530;BME280;37613;51.788;21.582;2022-08-24T00:55:20;100190.09;;;19.53;84.26
51530;BME280;37613;51.788;21.582;2022-08-24T00:59:28;100194.91;;;19.53;84.02
51530;BME280;37613;51.788;21.582;2022-08-24T01:03:32;100201.86;;;19.52;84.10
51530;BME280;37613;51.788;21.582;2022-08-24T01:07:37;100207.44;;;19.52;84.17
51530;BME280;37613;51.788;21.582;2022-08-24T01:11:39;100211.70;;;19.50;84.28
51530;BME280;37613;51.788;21.582;2022-08-24T01:15:45;100213.91;;;19.51;84.49
51530;BME280;37613;51.788;21.582;2022-08-24T01:25:05;100217.41;;;19.52;84.52
51530;BME280;37613;51.788;21.582;2022-08-24T01:29:24;100208.87;;;19.52;84.59
51530;BME280;37613;51.788;21.582;2022-08-24T01:33:29;100211.44;;;19.53;84.65
51530;BME280;37613;51.788;21.582;2022-08-24T01:37:32;100216.60;;;19.52;84.78
51530;BME280;37613;51.788;21.582;2022-08-24T01:41:35;100221.43;;;19.51;84.97
51530;BME280;37613;51.788;21.582;2022-08-24T01:45:37;100222.77;;;19.52;85.06
51530;BME280;37613;51.788;21.582;2022-08-24T01:49:42;100222.86;;;19.54;85.28
51530;BME280;37613;51.788;21.582;2022-08-24T01:53:45;100221.17;;;19.56;85.24
51530;BME280;37613;51.788;21.582;2022-08-24T01:57:46;100225.80;;;19.57;85.43
51530;BME280;37613;51.788;21.582;2022-08-24T02:01:52;100224.70;;;19.56;85.37
51530;BME280;37613;51.788;21.582;2022-08-24T02:05:55;100230.34;;;19.58;85.57
51530;BME280;37613;51.788;21.582;2022-08-24T02:09:58;100227.05;;;19.61;85.59
51530;BME280;37613;51.788;21.582;2022-08-24T02:14:00;100223.98;;;19.61;85.55
51530;BME280;37613;51.788;21.582;2022-08-24T02:18:02;100221.84;;;19.60;85.69
51530;BME280;37613;51.788;21.582;2022-08-24T02:22:04;100216.50;;;19.60;85.70
51530;BME280;37613;51.788;21.582;2022-08-24T02:26:08;100216.08;;;19.58;85.96
51530;BME280;37613;51.788;21.582;2022-08-24T02:30:11;100211.73;;;19.57;85.98
51530;BME280;37613;51.788;21.582;2022-08-24T02:34:13;100211.45;;;19.58;85.94
51530;BME280;37613;51.788;21.582;2022-08-24T02:38:16;100210.77;;;19.56;85.97
51530;BME280;37613;51.788;21.582;2022-08-24T02:42:18;100211.80;;;19.54;86.16
51530;BME280;37613;51.788;21.582;2022-08-24T02:46:24;100210.58;;;19.50;86.26
51530;BME280;37613;51.788;21.582;2022-08-24T02:50:26;100214.20;;;19.49;86.32
51530;BME280;37613;51.788;21.582;2022-08-24T02:54:28;100219.94;;;19.50;86.52
51530;BME280;37613;51.788;21.582;2022-08-24T02:58:30;100228.27;;;19.53;86.63
51530;BME280;37613;51.788;21.582;2022-08-24T03:02:32;100225.67;;;19.54;86.61
51530;BME280;37613;51.788;21.582;2022-08-24T03:06:34;100229.38;;;19.53;86.76
51530;BME280;37613;51.788;21.582;2022-08-24T03:10:36;100227.81;;;19.52;86.64
51530;BME280;37613;51.788;21.582;2022-08-24T03:14:38;100239.38;;;19.49;86.70
51530;BME280;37613;51.788;21.582;2022-08-24T03:18:39;100246.36;;;19.49;87.01
51530;BME280;37613;51.788;21.582;2022-08-24T03:22:42;100250.42;;;19.50;87.11
51530;BME280;37613;51.788;21.582;2022-08-24T03:26:44;100248.30;;;19.49;87.07
51530;BME280;37613;51.788;21.582;2022-08-24T03:30:46;100246.39;;;19.50;87.15
51530;BME280;37613;51.788;21.582;2022-08-24T03:34:48;100254.59;;;19.49;87.22
51530;BME280;37613;51.788;21.582;2022-08-24T03:38:50;100259.95;;;19.50;87.27
51530;BME280;37613;51.788;21.582;2022-08-24T03:42:53;100259.71;;;19.52;87.40
51530;BME280;37613;51.788;21.582;2022-08-24T03:46:55;100255.48;;;19.56;87.59
51530;BME280;37613;51.788;21.582;2022-08-24T03:50:57;100259.32;;;19.61;87.73
51530;BME280;37613;51.788;21.582;2022-08-24T03:55:00;100272.76;;;19.67;87.76
51530;BME280;37613;51.788;21.582;2022-08-24T03:59:02;100288.77;;;19.70;87.61
51530;BME280;37613;51.788;21.582;2022-08-24T04:03:04;100311.41;;;19.73;87.67
51530;BME280;37613;51.788;21.582;2022-08-24T04:07:07;100324.51;;;19.74;87.83
51530;BME280;37613;51.788;21.582;2022-08-24T04:11:18;100328.92;;;19.77;88.05
51530;BME280;37613;51.788;21.582;2022-08-24T04:15:20;100323.91;;;19.84;88.41
51530;BME280;37613;51.788;21.582;2022-08-24T04:19:25;100335.95;;;20.04;88.58
51530;BME280;37613;51.788;21.582;2022-08-24T04:23:28;100345.67;;;20.17;88.43
51530;BME280;37613;51.788;21.582;2022-08-24T04:27:30;100345.55;;;20.24;89.01
51530;BME280;37613;51.788;21.582;2022-08-24T04:31:34;100336.11;;;20.42;89.00
51530;BME280;37613;51.788;21.582;2022-08-24T04:35:42;100338.55;;;20.69;89.02
51530;BME280;37613;51.788;21.582;2022-08-24T04:39:45;100331.53;;;21.10;89.22
51530;BME280;37613;51.788;21.582;2022-08-24T04:43:48;100330.27;;;21.62;88.97
51530;BME280;37613;51.788;21.582;2022-08-24T04:47:51;100321.73;;;22.13;89.02
51530;BME280;37613;51.788;21.582;2022-08-24T04:52:01;100321.62;;;22.68;88.67
51530;BME280;37613;51.788;21.582;2022-08-24T04:56:09;100316.10;;;23.18;88.02
51530;BME280;37613;51.788;21.582;2022-08-24T05:00:12;100302.48;;;23.62;87.54
51530;BME280;37613;51.788;21.582;2022-08-24T05:04:14;100287.70;;;23.81;86.67
51530;BME280;37613;51.788;21.582;2022-08-24T05:08:18;100273.80;;;23.68;85.93
51530;BME280;37613;51.788;21.582;2022-08-24T05:12:20;100269.64;;;23.70;85.73
51530;BME280;37613;51.788;21.582;2022-08-24T05:16:22;100265.80;;;23.60;85.61
51530;BME280;37613;51.788;21.582;2022-08-24T05:20:24;100267.31;;;23.48;85.05
51530;BME280;37613;51.788;21.582;2022-08-24T05:24:26;100269.70;;;23.11;84.41
51530;BME280;37613;51.788;21.582;2022-08-24T05:28:28;100269.02;;;22.93;84.79
51530;BME280;37613;51.788;21.582;2022-08-24T05:32:45;100265.30;;;22.79;84.49
51530;BME280;37613;51.788;21.582;2022-08-24T05:36:47;100270.13;;;22.60;84.32
51530;BME280;37613;51.788;21.582;2022-08-24T05:40:49;100266.02;;;22.46;84.48
51530;BME280;37613;51.788;21.582;2022-08-24T05:44:51;100259.38;;;22.32;84.31
51530;BME280;37613;51.788;21.582;2022-08-24T05:48:53;100252.41;;;22.21;84.43
51530;BME280;37613;51.788;21.582;2022-08-24T05:52:55;100261.59;;;22.19;85.04
51530;BME280;37613;51.788;21.582;2022-08-24T05:56:57;100264.16;;;22.28;85.20
51530;BME280;37613;51.788;21.582;2022-08-24T06:01:10;100267.05;;;22.55;85.39
51530;BME280;37613;51.788;21.582;2022-08-24T06:05:12;100270.48;;;22.77;84.86
51530;BME280;37613;51.788;21.582;2022-08-24T06:09:15;100274.29;;;22.88;85.00
51530;BME280;37613;51.788;21.582;2022-08-24T06:13:17;100276.86;;;23.24;84.77
51530;BME280;37613;51.788;21.582;2022-08-24T06:17:19;100282.88;;;23.68;84.65
51530;BME280;37613;51.788;21.582;2022-08-24T06:21:23;100282.30;;;24.15;83.78
51530;BME280;37613;51.788;21.582;2022-08-24T06:25:26;100289.25;;;24.59;83.15
51530;BME280;37613;51.788;21.582;2022-08-24T06:30:07;100291.36;;;25.11;83.01
51530;BME280;37613;51.788;21.582;2022-08-24T06:34:15;100296.64;;;25.61;81.96
51530;BME280;37613;51.788;21.582;2022-08-24T06:38:20;100293.56;;;26.06;81.24
51530;BME280;37613;51.788;21.582;2022-08-24T06:42:23;100296.41;;;26.42;80.66
51530;BME280;37613;51.788;21.582;2022-08-24T06:46:25;100300.00;;;26.65;79.21
51530;BME280;37613;51.788;21.582;2022-08-24T06:50:31;100302.75;;;26.76;77.18
51530;BME280;37613;51.788;21.582;2022-08-24T06:54:34;100303.09;;;26.88;77.90
51530;BME280;37613;51.788;21.582;2022-08-24T06:58:37;100299.23;;;27.06;77.93
51530;BME280;37613;51.788;21.582;2022-08-24T07:02:39;100306.90;;;27.27;76.66
51530;BME280;37613;51.788;21.582;2022-08-24T07:06:41;100306.05;;;27.46;75.86
51530;BME280;37613;51.788;21.582;2022-08-24T07:10:43;100312.39;;;27.67;74.57
51530;BME280;37613;51.788;21.582;2022-08-24T07:14:46;100318.76;;;27.93;75.01
51530;BME280;37613;51.788;21.582;2022-08-24T07:18:48;100325.34;;;28.27;74.48
51530;BME280;37613;51.788;21.582;2022-08-24T07:22:51;100322.57;;;28.42;72.34
51530;BME280;37613;51.788;21.582;2022-08-24T07:26:56;100317.66;;;28.38;71.81
51530;BME280;37613;51.788;21.582;2022-08-24T07:30:58;100320.23;;;28.50;72.00
51530;BME280;37613;51.788;21.582;2022-08-24T07:35:00;100329.12;;;28.63;70.60
51530;BME280;37613;51.788;21.582;2022-08-24T07:39:03;100333.67;;;28.77;71.35
51530;BME280;37613;51.788;21.582;2022-08-24T07:43:06;100339.50;;;29.03;70.83
51530;BME280;37613;51.788;21.582;2022-08-24T07:47:08;100333.08;;;29.06;67.87
51530;BME280;37613;51.788;21.582;2022-08-24T07:51:13;100338.69;;;28.93;67.20
51530;BME280;37613;51.788;21.582;2022-08-24T07:55:15;100345.89;;;29.00;67.17
51530;BME280;37613;51.788;21.582;2022-08-24T07:59:17;100349.19;;;29.02;65.43
51530;BME280;37613;51.788;21.582;2022-08-24T08:03:19;100341.84;;;28.96;65.13
51530;BME280;37613;51.788;21.582;2022-08-24T08:07:22;100340.35;;;28.94;62.78
51530;BME280;37613;51.788;21.582;2022-08-24T08:11:24;100341.73;;;28.89;63.78
51530;BME280;37613;51.788;21.582;2022-08-24T08:15:27;100341.13;;;29.14;63.69
51530;BME280;37613;51.788;21.582;2022-08-24T08:19:29;100339.88;;;29.35;62.70
51530;BME280;37613;51.788;21.582;2022-08-24T08:23:31;100343.40;;;29.54;62.52
51530;BME280;37613;51.788;21.582;2022-08-24T08:27:51;100346.39;;;29.61;61.29
51530;BME280;37613;51.788;21.582;2022-08-24T08:31:54;100349.08;;;29.71;62.06
51530;BME280;37613;51.788;21.582;2022-08-24T08:40:16;100346.04;;;30.09;59.72
51530;BME280;37613;51.788;21.582;2022-08-24T08:44:46;100348.68;;;30.16;58.68
51530;BME280;37613;51.788;21.582;2022-08-24T08:49:14;100340.98;;;30.14;57.69
51530;BME280;37613;51.788;21.582;2022-08-24T09:02:21;100338.84;;;30.01;56.77
51530;BME280;37613;51.788;21.582;2022-08-24T09:10:56;100340.58;;;30.18;55.44
51530;BME280;37613;51.788;21.582;2022-08-24T09:15:46;100343.52;;;30.41;54.74
51530;BME280;37613;51.788;21.582;2022-08-24T09:20:23;100340.73;;;30.46;54.18
51530;BME280;37613;51.788;21.582;2022-08-24T09:25:19;100338.43;;;30.54;53.77
51530;BME280;37613;51.788;21.582;2022-08-24T09:29:12;100342.67;;;30.77;53.57
51530;BME280;37613;51.788;21.582;2022-08-24T09:33:20;100337.91;;;30.87;52.98
51530;BME280;37613;51.788;21.582;2022-08-24T09:42:15;100337.04;;;30.96;49.77
51530;BME280;37613;51.788;21.582;2022-08-24T09:47:17;100339.94;;;30.80;49.30
51530;BME280;37613;51.788;21.582;2022-08-24T09:51:51;100334.65;;;30.74;49.65
51530;BME280;37613;51.788;21.582;2022-08-24T09:56:19;100333.97;;;30.75;49.14
51530;BME280;37613;51.788;21.582;2022-08-24T10:04:59;100336.60;;;30.72;49.65
51530;BME280;37613;51.788;21.582;2022-08-24T10:18:40;100342.44;;;30.85;49.17
51530;BME280;37613;51.788;21.582;2022-08-24T10:27:19;100342.10;;;30.77;50.02
51530;BME280;37613;51.788;21.582;2022-08-24T10:31:30;100345.23;;;30.92;49.72
51530;BME280;37613;51.788;21.582;2022-08-24T10:35:35;100340.56;;;30.90;48.93
51530;BME280;37613;51.788;21.582;2022-08-24T10:48:59;100335.45;;;30.63;48.33
51530;BME280;37613;51.788;21.582;2022-08-24T10:53:29;100332.23;;;30.59;48.20
51530;BME280;37613;51.788;21.582;2022-08-24T11:02:11;100321.65;;;30.65;48.81
51530;BME280;37613;51.788;21.582;2022-08-24T11:06:32;100315.45;;;30.81;48.01
51530;BME280;37613;51.788;21.582;2022-08-24T11:10:37;100318.47;;;30.85;47.81
51530;BME280;37613;51.788;21.582;2022-08-24T11:14:46;100320.80;;;30.98;48.03
51530;BME280;37613;51.788;21.582;2022-08-24T11:18:52;100320.05;;;31.07;47.82
51530;BME280;37613;51.788;21.582;2022-08-24T11:23:04;100323.45;;;31.14;47.66
51530;BME280;37613;51.788;21.582;2022-08-24T11:31:40;100321.30;;;31.15;47.47
51530;BME280;37613;51.788;21.582;2022-08-24T11:35:42;100322.13;;;31.30;47.44
51530;BME280;37613;51.788;21.582;2022-08-24T11:39:44;100318.80;;;31.36;47.23
51530;BME280;37613;51.788;21.582;2022-08-24T11:44:08;100315.98;;;31.49;47.54
51530;BME280;37613;51.788;21.582;2022-08-24T11:48:34;100319.17;;;31.55;46.65
51530;BME280;37613;51.788;21.582;2022-08-24T11:57:46;100319.98;;;31.24;46.76
51530;BME280;37613;51.788;21.582;2022-08-24T12:06:22;100316.95;;;31.06;47.27
51530;BME280;37613;51.788;21.582;2022-08-24T12:15:07;100313.55;;;31.07;47.40
51530;BME280;37613;51.788;21.582;2022-08-24T12:19:18;100309.80;;;31.23;47.08
51530;BME280;37613;51.788;21.582;2022-08-24T12:23:46;100306.15;;;31.29;46.41
51530;BME280;37613;51.788;21.582;2022-08-24T12:27:47;100306.65;;;31.26;46.66
51530;BME280;37613;51.788;21.582;2022-08-24T12:32:22;100304.30;;;31.32;46.65
51530;BME280;37613;51.788;21.582;2022-08-24T12:36:35;100301.09;;;31.26;46.87
51530;BME280;37613;51.788;21.582;2022-08-24T12:40:43;100294.98;;;31.33;46.88
51530;BME280;37613;51.788;21.582;2022-08-24T12:44:53;100297.10;;;31.46;47.07
51530;BME280;37613;51.788;21.582;2022-08-24T12:49:04;100299.09;;;31.65;46.96
51530;BME280;37613;51.788;21.582;2022-08-24T13:01:39;100299.70;;;31.35;46.57
51530;BME280;37613;51.788;21.582;2022-08-24T13:05:46;100295.27;;;31.18;46.48
51530;BME280;37613;51.788;21.582;2022-08-24T13:26:33;100339.40;;;28.88;51.80
51530;BME280;37613;51.788;21.582;2022-08-24T13:31:02;100335.86;;;27.91;54.72
51530;BME280;37613;51.788;21.582;2022-08-24T13:35:59;100319.42;;;27.01;56.52
51530;BME280;37613;51.788;21.582;2022-08-24T13:44:23;100299.35;;;26.31;59.06
51530;BME280;37613;51.788;21.582;2022-08-24T13:48:41;100308.36;;;26.17;60.07
51530;BME280;37613;51.788;21.582;2022-08-24T14:05:25;100354.88;;;26.46;64.37
51530;BME280;37613;51.788;21.582;2022-08-24T14:18:35;100345.80;;;25.38;65.64
51530;BME280;37613;51.788;21.582;2022-08-24T14:27:05;100321.20;;;24.93;66.96
51530;BME280;37613;51.788;21.582;2022-08-24T14:31:17;100314.23;;;24.85;69.00
51530;BME280;37613;51.788;21.582;2022-08-24T14:52:53;100300.62;;;25.51;71.55
51530;BME280;37613;51.788;21.582;2022-08-24T15:01:39;100308.52;;;25.77;72.16
51530;BME280;37613;51.788;21.582;2022-08-24T15:05:51;100321.92;;;25.79;74.09
51530;BME280;37613;51.788;21.582;2022-08-24T15:10:10;100318.68;;;25.71;74.30
51530;BME280;37613;51.788;21.582;2022-08-24T15:14:35;100311.28;;;25.47;74.08
51530;BME280;37613;51.788;21.582;2022-08-24T15:23:11;100300.01;;;24.83;73.33
51530;BME280;37613;51.788;21.582;2022-08-24T15:27:58;100298.98;;;24.52;73.24
51530;BME280;37613;51.788;21.582;2022-08-24T15:32:09;100293.16;;;24.19;73.73
51530;BME280;37613;51.788;21.582;2022-08-24T15:36:15;100285.89;;;24.00;73.68
51530;BME280;37613;51.788;21.582;2022-08-24T15:40:29;100278.41;;;23.87;74.11
51530;BME280;37613;51.788;21.582;2022-08-24T15:44:32;100275.21;;;23.78;74.45
51530;BME280;37613;51.788;21.582;2022-08-24T15:48:35;100285.42;;;23.74;74.69
51530;BME280;37613;51.788;21.582;2022-08-24T15:52:54;100289.38;;;23.74;75.82
51530;BME280;37613;51.788;21.582;2022-08-24T15:57:02;100340.23;;;23.73;77.18
51530;BME280;37613;51.788;21.582;2022-08-24T16:09:36;100381.12;;;23.14;76.69
51530;BME280;37613;51.788;21.582;2022-08-24T16:13:41;100397.56;;;23.08;76.36
51530;BME280;37613;51.788;21.582;2022-08-24T16:17:49;100411.73;;;22.97;77.61
51530;BME280;37613;51.788;21.582;2022-08-24T16:21:58;100389.66;;;22.58;75.60
51530;BME280;37613;51.788;21.582;2022-08-24T16:26:28;100344.63;;;22.14;76.20
51530;BME280;37613;51.788;21.582;2022-08-24T16:35:12;100325.20;;;21.99;77.89
51530;BME280;37613;51.788;21.582;2022-08-24T16:39:15;100327.13;;;21.93;77.87
51530;BME280;37613;51.788;21.582;2022-08-24T16:43:16;100336.98;;;21.94;78.21
51530;BME280;37613;51.788;21.582;2022-08-24T16:47:19;100333.36;;;21.94;78.50
51530;BME280;37613;51.788;21.582;2022-08-24T16:51:21;100316.92;;;21.92;79.17
51530;BME280;37613;51.788;21.582;2022-08-24T16:55:26;100318.68;;;21.93;81.05
51530;BME280;37613;51.788;21.582;2022-08-24T16:59:31;100323.40;;;21.94;79.99
51530;BME280;37613;51.788;21.582;2022-08-24T17:03:33;100322.22;;;21.93;80.67
51530;BME280;37613;51.788;21.582;2022-08-24T17:07:36;100326.56;;;21.93;81.09
51530;BME280;37613;51.788;21.582;2022-08-24T17:11:38;100371.38;;;21.99;84.34
51530;BME280;37613;51.788;21.582;2022-08-24T17:15:40;100358.92;;;22.04;84.68
51530;BME280;37613;51.788;21.582;2022-08-24T17:19:42;100355.55;;;22.04;82.41
51530;BME280;37613;51.788;21.582;2022-08-24T17:23:44;100355.98;;;22.01;82.26
51530;BME280;37613;51.788;21.582;2022-08-24T17:27:46;100353.63;;;22.00;82.66
51530;BME280;37613;51.788;21.582;2022-08-24T17:31:48;100343.63;;;21.97;82.12
51530;BME280;37613;51.788;21.582;2022-08-24T17:35:53;100349.55;;;21.96;82.15
51530;BME280;37613;51.788;21.582;2022-08-24T17:39:57;100363.63;;;21.96;82.51
51530;BME280;37613;51.788;21.582;2022-08-24T17:43:59;100376.61;;;21.95;82.76
51530;BME280;37613;51.788;21.582;2022-08-24T17:48:01;100376.85;;;21.91;83.07
51530;BME280;37613;51.788;21.582;2022-08-24T17:52:04;100380.73;;;21.87;83.82
51530;BME280;37613;51.788;21.582;2022-08-24T17:56:05;100391.12;;;21.85;83.50
51530;BME280;37613;51.788;21.582;2022-08-24T18:00:09;100408.80;;;21.80;83.47
51530;BME280;37613;51.788;21.582;2022-08-24T18:04:12;100418.23;;;21.78;83.75
51530;BME280;37613;51.788;21.582;2022-08-24T18:08:14;100432.71;;;21.74;83.86
51530;BME280;37613;51.788;21.582;2022-08-24T18:12:18;100435.02;;;21.71;86.08
51530;BME280;37613;51.788;21.582;2022-08-24T18:16:23;100442.62;;;21.68;85.93
51530;BME280;37613;51.788;21.582;2022-08-24T18:20:34;100452.00;;;21.65;85.41
51530;BME280;37613;51.788;21.582;2022-08-24T18:24:37;100456.42;;;21.62;85.66
51530;BME280;37613;51.788;21.582;2022-08-24T18:28:39;100452.92;;;21.60;86.77
51530;BME280;37613;51.788;21.582;2022-08-24T18:32:41;100450.58;;;21.58;86.47
51530;BME280;37613;51.788;21.582;2022-08-24T18:36:43;100451.64;;;21.56;85.87
51530;BME280;37613;51.788;21.582;2022-08-24T18:40:45;100448.02;;;21.54;85.83
51530;BME280;37613;51.788;21.582;2022-08-24T18:44:47;100450.03;;;21.52;85.95
51530;BME280;37613;51.788;21.582;2022-08-24T18:48:49;100453.38;;;21.53;86.00
51530;BME280;37613;51.788;21.582;2022-08-24T18:52:50;100461.81;;;21.53;86.11
51530;BME280;37613;51.788;21.582;2022-08-24T18:56:52;100461.72;;;21.53;86.04
51530;BME280;37613;51.788;21.582;2022-08-24T19:00:54;100453.63;;;21.51;86.12
51530;BME280;37613;51.788;21.582;2022-08-24T19:05:21;100448.25;;;21.49;86.20
51530;BME280;37613;51.788;21.582;2022-08-24T19:09:23;100448.38;;;21.47;86.31
51530;BME280;37613;51.788;21.582;2022-08-24T19:13:24;100449.16;;;21.46;86.37
51530;BME280;37613;51.788;21.582;2022-08-24T19:17:26;100445.78;;;21.44;86.50
51530;BME280;37613;51.788;21.582;2022-08-24T19:21:30;100446.63;;;21.41;86.43
51530;BME280;37613;51.788;21.582;2022-08-24T19:25:35;100447.72;;;21.40;86.43
51530;BME280;37613;51.788;21.582;2022-08-24T19:29:39;100447.42;;;21.39;86.60
51530;BME280;37613;51.788;21.582;2022-08-24T19:33:44;100447.94;;;21.39;86.95
51530;BME280;37613;51.788;21.582;2022-08-24T19:37:47;100445.48;;;21.36;87.28
51530;BME280;37613;51.788;21.582;2022-08-24T19:41:50;100444.08;;;21.33;87.37
51530;BME280;37613;51.788;21.582;2022-08-24T19:45:52;100440.71;;;21.30;87.58
51530;BME280;37613;51.788;21.582;2022-08-24T19:50:06;100442.87;;;21.27;87.42
51530;BME280;37613;51.788;21.582;2022-08-24T19:54:09;100441.89;;;21.25;87.30
51530;BME280;37613;51.788;21.582;2022-08-24T20:02:22;100456.93;;;21.24;87.64
51530;BME280;37613;51.788;21.582;2022-08-24T20:06:24;100463.09;;;21.23;87.70
51530;BME280;37613;51.788;21.582;2022-08-24T20:10:26;100469.59;;;21.23;87.76
51530;BME280;37613;51.788;21.582;2022-08-24T20:14:28;100474.41;;;21.23;87.64
51530;BME280;37613;51.788;21.582;2022-08-24T20:18:31;100476.25;;;21.23;87.57
51530;BME280;37613;51.788;21.582;2022-08-24T20:22:35;100472.16;;;21.22;88.02
51530;BME280;37613;51.788;21.582;2022-08-24T20:26:40;100472.34;;;21.21;88.29
51530;BME280;37613;51.788;21.582;2022-08-24T20:30:43;100472.34;;;21.19;87.93
51530;BME280;37613;51.788;21.582;2022-08-24T20:34:45;100475.56;;;21.16;87.89
51530;BME280;37613;51.788;21.582;2022-08-24T20:38:47;100481.00;;;21.11;88.58
51530;BME280;37613;51.788;21.582;2022-08-24T20:42:50;100480.29;;;21.03;88.26
51530;BME280;37613;51.788;21.582;2022-08-24T20:46:52;100483.89;;;20.94;88.33
51530;BME280;37613;51.788;21.582;2022-08-24T20:50:56;100490.46;;;20.91;88.50
51530;BME280;37613;51.788;21.582;2022-08-24T20:54:58;100495.55;;;20.82;89.20
51530;BME280;37613;51.788;21.582;2022-08-24T20:59:03;100490.91;;;20.75;88.89
51530;BME280;37613;51.788;21.582;2022-08-24T21:03:05;100500.20;;;20.73;88.94
51530;BME280;37613;51.788;21.582;2022-08-24T21:07:11;100503.37;;;20.70;89.29
51530;BME280;37613;51.788;21.582;2022-08-24T21:11:14;100496.22;;;20.66;89.48
51530;BME280;37613;51.788;21.582;2022-08-24T21:15:16;100500.27;;;20.60;89.32
51530;BME280;37613;51.788;21.582;2022-08-24T21:19:18;100501.13;;;20.58;89.54
51530;BME280;37613;51.788;21.582;2022-08-24T21:23:20;100499.36;;;20.55;89.49
51530;BME280;37613;51.788;21.582;2022-08-24T21:27:22;100499.05;;;20.52;89.39
51530;BME280;37613;51.788;21.582;2022-08-24T21:31:26;100510.71;;;20.49;89.63
51530;BME280;37613;51.788;21.582;2022-08-24T21:35:28;100505.59;;;20.47;89.78
51530;BME280;37613;51.788;21.582;2022-08-24T21:39:30;100503.00;;;20.43;89.98
51530;BME280;37613;51.788;21.582;2022-08-24T21:43:32;100496.36;;;20.37;89.77
51530;BME280;37613;51.788;21.582;2022-08-24T21:47:34;100492.71;;;20.34;89.74
51530;BME280;37613;51.788;21.582;2022-08-24T21:51:36;100488.46;;;20.33;89.80
51530;BME280;37613;51.788;21.582;2022-08-24T21:55:38;100482.84;;;20.31;90.06
51530;BME280;37613;51.788;21.582;2022-08-24T21:59:41;100479.60;;;20.27;90.30
51530;BME280;37613;51.788;21.582;2022-08-24T22:03:44;100475.17;;;20.26;90.23
51530;BME280;37613;51.788;21.582;2022-08-24T22:07:46;100474.64;;;20.25;90.18
51530;BME280;37613;51.788;21.582;2022-08-24T22:11:48;100476.88;;;20.25;91.27
51530;BME280;37613;51.788;21.582;2022-08-24T22:21:15;100472.36;;;20.23;90.77
51530;BME280;37613;51.788;21.582;2022-08-24T22:25:17;100467.63;;;20.21;90.69
51530;BME280;37613;51.788;21.582;2022-08-24T22:29:19;100467.16;;;20.19;90.56
51530;BME280;37613;51.788;21.582;2022-08-24T22:33:21;100460.59;;;20.18;90.50
51530;BME280;37613;51.788;21.582;2022-08-24T22:37:23;100455.85;;;20.18;90.32
51530;BME280;37613;51.788;21.582;2022-08-24T22:41:27;100450.84;;;20.20;90.37
51530;BME280;37613;51.788;21.582;2022-08-24T22:45:29;100448.05;;;20.19;90.35
51530;BME280;37613;51.788;21.582;2022-08-24T22:49:35;100449.64;;;20.17;90.28
51530;BME280;37613;51.788;21.582;2022-08-24T22:53:38;100447.48;;;20.14;90.32
51530;BME280;37613;51.788;21.582;2022-08-24T22:57:41;100448.59;;;20.13;90.56
51530;BME280;37613;51.788;21.582;2022-08-24T23:01:44;100448.33;;;20.11;90.38
51530;BME280;37613;51.788;21.582;2022-08-24T23:05:48;100444.42;;;20.09;90.48
51530;BME280;37613;51.788;21.582;2022-08-24T23:09:50;100438.30;;;20.06;90.40
51530;BME280;37613;51.788;21.582;2022-08-24T23:13:55;100436.16;;;20.03;90.37
51530;BME280;37613;51.788;21.582;2022-08-24T23:17:57;100430.54;;;20.01;90.38
51530;BME280;37613;51.788;21.582;2022-08-24T23:21:59;100428.20;;;20.02;90.44
51530;BME280;37613;51.788;21.582;2022-08-24T23:26:03;100428.98;;;20.02;90.57
51530;BME280;37613;51.788;21.582;2022-08-24T23:30:11;100423.46;;;20.02;90.47
51530;BME280;37613;51.788;21.582;2022-08-24T23:34:14;100420.75;;;20.01;90.34
51530;BME280;37613;51.788;21.582;2022-08-24T23:38:16;100419.02;;;19.98;90.44
51530;BME280;37613;51.788;21.582;2022-08-24T23:42:18;100417.76;;;19.95;90.49
51530;BME280;37613;51.788;21.582;2022-08-24T23:46:21;100416.75;;;19.92;90.56
51530;BME280;37613;51.788;21.582;2022-08-24T23:50:23;100413.18;;;19.91;90.61
51530;BME280;37613;51.788;21.582;2022-08-24T23:54:25;100411.79;;;19.92;90.66
51530;BME280;37613;51.788;21.582;2022-08-24T23:58:28;100409.44;;;19.93;91.01
